Map

Track Data

SID SEASON NUMBER BASIN SUBBASIN NAME ISO_TIME NATURE LAT LON WMO_WIND WMO_PRES WMO_AGENCY TRACK_TYPE DIST2LAND LANDFALL IFLAG USA_AGENCY USA_ATCF_ID USA_LAT USA_LON USA_RECORD USA_STATUS USA_WIND USA_PRES USA_SSHS USA_R34_NE USA_R34_SE USA_R34_SW USA_R34_NW USA_R50_NE USA_R50_SE USA_R50_SW USA_R50_NW USA_R64_NE USA_R64_SE USA_R64_SW USA_R64_NW USA_POCI USA_ROCI USA_RMW USA_EYE TOKYO_LAT TOKYO_LON TOKYO_GRADE TOKYO_WIND TOKYO_PRES TOKYO_R50_DIR TOKYO_R50_LONG TOKYO_R50_SHORT TOKYO_R30_DIR TOKYO_R30_LONG TOKYO_R30_SHORT TOKYO_LAND CMA_LAT CMA_LON CMA_CAT CMA_WIND CMA_PRES HKO_LAT HKO_LON HKO_CAT HKO_WIND HKO_PRES NEWDELHI_LAT NEWDELHI_LON NEWDELHI_GRADE NEWDELHI_WIND NEWDELHI_PRES NEWDELHI_CI NEWDELHI_DP NEWDELHI_POCI REUNION_LAT REUNION_LON REUNION_TYPE REUNION_WIND REUNION_PRES REUNION_TNUM REUNION_CI REUNION_RMW REUNION_R34_NE REUNION_R34_SE REUNION_R34_SW REUNION_R34_NW REUNION_R50_NE REUNION_R50_SE REUNION_R50_SW REUNION_R50_NW REUNION_R64_NE REUNION_R64_SE REUNION_R64_SW REUNION_R64_NW BOM_LAT BOM_LON BOM_TYPE BOM_WIND BOM_PRES BOM_TNUM BOM_CI BOM_RMW BOM_R34_NE BOM_R34_SE BOM_R34_SW BOM_R34_NW BOM_R50_NE BOM_R50_SE BOM_R50_SW BOM_R50_NW BOM_R64_NE BOM_R64_SE BOM_R64_SW BOM_R64_NW BOM_ROCI BOM_POCI BOM_EYE BOM_POS_METHOD BOM_PRES_METHOD NADI_LAT NADI_LON NADI_CAT NADI_WIND NADI_PRES WELLINGTON_LAT WELLINGTON_LON WELLINGTON_WIND WELLINGTON_PRES DS824_LAT DS824_LON DS824_STAGE DS824_WIND DS824_PRES TD9636_LAT TD9636_LON TD9636_STAGE TD9636_WIND TD9636_PRES TD9635_LAT TD9635_LON TD9635_WIND TD9635_PRES TD9635_ROCI NEUMANN_LAT NEUMANN_LON NEUMANN_CLASS NEUMANN_WIND NEUMANN_PRES MLC_LAT MLC_LON MLC_CLASS MLC_WIND MLC_PRES USA_GUST BOM_GUST BOM_GUST_PER REUNION_GUST REUNION_GUST_PER USA_SEAHGT USA_SEARAD_NE USA_SEARAD_SE USA_SEARAD_SW USA_SEARAD_NW STORM_SPEED STORM_DIR
1915314N13125 1915 49 WP MM NOT_NAMED 1915-11-10 10:00:00 NR 13.2000 124.900 main 77 77 __________O___ -1 13.2000 124.900 2 2 115
1915314N13125 1915 49 WP MM NOT_NAMED 1915-11-10 12:00:00 NR 13.1767 124.954 main 78 78 __________P___ -1 13.1767 124.954 2 1 118
1915314N13125 1915 49 WP MM NOT_NAMED 1915-11-10 15:00:00 NR 13.1506 124.990 main 78 67 __________P___ -1 13.1506 124.990 2 1 238
1915314N13125 1915 49 WP MM NOT_NAMED 1915-11-10 18:00:00 NR 13.1469 124.910 main 67 54 __________P___ -1 13.1469 124.910 2 3 275
1915314N13125 1915 49 WP MM NOT_NAMED 1915-11-10 21:00:00 NR 13.1791 124.643 main 54 46 __________P___ -1 13.1791 124.643 2 6 278
1915314N13125 1915 49 WP MM NOT_NAMED 1915-11-10 22:00:00 NR 13.2000 124.500 main 46 22 __________O___ -1 13.2000 124.500 2 10 279
1915314N13125 1915 49 WP MM NOT_NAMED 1915-11-11 00:00:00 NR 13.2592 124.126 main 24 0 __________P___ -1 13.2592 124.126 2 13 280
1915314N13125 1915 49 WP MM NOT_NAMED 1915-11-11 03:00:00 NR 13.3913 123.389 main 0 0 __________P___ -1 13.3913 123.389 2 16 281
1915314N13125 1915 49 WP MM NOT_NAMED 1915-11-11 06:00:00 NR 13.5748 122.518 main 0 0 __________P___ -1 13.5748 122.518 2 18 284
1915314N13125 1915 49 WP MM NOT_NAMED 1915-11-11 09:00:00 NR 13.8099 121.601 main 10 0 __________P___ -1 13.8099 121.601 2 18 285
1915314N13125 1915 49 WP MM NOT_NAMED 1915-11-11 10:00:00 NR 13.9000 121.300 main 0 0 __________O___ -1 13.9000 121.300 2 18 290
1915314N13125 1915 49 WP MM NOT_NAMED 1915-11-11 12:00:00 NR 14.1116 120.749 main 0 0 __________P___ -1 14.1116 120.749 2 17 293
1915314N13125 1915 49 WP MM NOT_NAMED 1915-11-11 15:00:00 NR 14.4737 119.922 main 39 39 __________P___ -1 14.4737 119.922 2 18 295
1915314N13125 1915 49 WP MM NOT_NAMED 1915-11-11 18:00:00 NR 14.8506 119.113 main 102 102 __________P___ -1 14.8506 119.113 2 17 295
1915314N13125 1915 49 WP MM NOT_NAMED 1915-11-11 21:00:00 NR 15.1982 118.344 main 173 173 __________P___ -1 15.1982 118.344 2 16 295
1915314N13125 1915 49 WP MM NOT_NAMED 1915-11-11 22:00:00 NR 15.3000 118.100 main 188 188 __________O___ -1 15.3000 118.100 2 15 291
1915314N13125 1915 49 WP MM NOT_NAMED 1915-11-12 00:00:00 NR 15.4636 117.637 main 231 231 __________P___ -1 15.4636 117.637 2 14 289
1915314N13125 1915 49 WP MM NOT_NAMED 1915-11-12 03:00:00 NR 15.6658 116.988 main 290 290 __________P___ -1 15.6658 116.988 2 13 287
1915314N13125 1915 49 WP MM NOT_NAMED 1915-11-12 06:00:00 NR 15.8272 116.379 main 353 363 __________P___ -1 15.8272 116.379 2 12 284
1915314N13125 1915 49 WP MM NOT_NAMED 1915-11-12 09:00:00 NR 15.9600 115.793 main 417 417 __________P___ -1 15.9600 115.793 2 12 283
1915314N13125 1915 49 WP MM NOT_NAMED 1915-11-12 10:00:00 NR 16.0000 115.600 main 438 438 __________O___ -1 16.0000 115.600 2 12 283
1915314N13125 1915 49 WP MM NOT_NAMED 1915-11-12 12:00:00 NR 16.0944 115.169 main 481 491 __________P___ -1 16.0944 115.169 2 13 282
1915314N13125 1915 49 WP MM NOT_NAMED 1915-11-12 15:00:00 NR 16.2174 114.533 main 514 456 __________P___ -1 16.2174 114.533 2 12 281
1915314N13125 1915 49 WP MM NOT_NAMED 1915-11-12 18:00:00 NR 16.3150 113.945 main 456 408 __________P___ -1 16.3150 113.945 2 11 279
1915314N13125 1915 49 WP MM NOT_NAMED 1915-11-12 21:00:00 NR 16.3839 113.442 main 408 400 __________P___ -1 16.3839 113.442 2 9 278
1915314N13125 1915 49 WP MM NOT_NAMED 1915-11-12 22:00:00 NR 16.4000 113.300 main 400 384 __________O___ -1 16.4000 113.300 2 7 276
1915314N13125 1915 49 WP MM NOT_NAMED 1915-11-13 00:00:00 NR 16.4248 113.065 main 384 361 __________P___ -1 16.4248 113.065 2 6 274
1915314N13125 1915 49 WP MM NOT_NAMED 1915-11-13 03:00:00 NR 16.4374 112.800 main 361 347 __________P___ -1 16.4374 112.800 2 4 271
1915314N13125 1915 49 WP MM NOT_NAMED 1915-11-13 06:00:00 NR 16.4288 112.608 main 347 340 __________P___ -1 16.4288 112.608 2 3 265
1915314N13125 1915 49 WP MM NOT_NAMED 1915-11-13 09:00:00 NR 16.4081 112.451 main 340 333 __________P___ -1 16.4081 112.451 2 3 262
1915314N13125 1915 49 WP MM NOT_NAMED 1915-11-13 10:00:00 NR 16.4000 112.400 main 333 326 __________O___ -1 16.4000 112.400 2 4 264
1915314N13125 1915 49 WP MM NOT_NAMED 1915-11-13 12:00:00 NR 16.3890 112.269 main 326 314 __________P___ -1 16.3890 112.269 2 4 264
1915314N13125 1915 49 WP MM NOT_NAMED 1915-11-13 15:00:00 NR 16.3662 112.086 main 314 308 __________P___ -1 16.3662 112.086 2 3 262
1915314N13125 1915 49 WP MM NOT_NAMED 1915-11-13 18:00:00 NR 16.3387 111.915 main 309 302 __________P___ -1 16.3387 111.915 2 3 260
1915314N13125 1915 49 WP MM NOT_NAMED 1915-11-13 21:00:00 NR 16.3095 111.753 main 302 296 __________P___ -1 16.3095 111.753 2 3 259
1915314N13125 1915 49 WP MM NOT_NAMED 1915-11-13 22:00:00 NR 16.3000 111.700 main 296 289 __________O___ -1 16.3000 111.700 2 3 259
1915314N13125 1915 49 WP MM NOT_NAMED 1915-11-14 00:00:00 NR 16.2806 111.600 main 289 283 __________P___ -1 16.2806 111.600 2 3 258
1915314N13125 1915 49 WP MM NOT_NAMED 1915-11-14 03:00:00 NR 16.2516 111.455 main 283 278 __________P___ -1 16.2516 111.455 2 3 259
1915314N13125 1915 49 WP MM NOT_NAMED 1915-11-14 06:00:00 NR 16.2253 111.310 main 280 270 __________P___ -1 16.2253 111.310 2 3 261
1915314N13125 1915 49 WP MM NOT_NAMED 1915-11-14 09:00:00 NR 16.2049 111.155 main 270 260 __________P___ -1 16.2049 111.155 2 3 263
1915314N13125 1915 49 WP MM NOT_NAMED 1915-11-14 10:00:00 NR 16.2000 111.100 main 260 251 __________O___ -1 16.2000 111.100 2 3 266
1915314N13125 1915 49 WP MM NOT_NAMED 1915-11-14 12:00:00 NR 16.1933 110.982 main 251 232 __________P___ -1 16.1933 110.982 2 4 268
1915314N13125 1915 49 WP MM NOT_NAMED 1915-11-14 15:00:00 NR 16.1900 110.790 main 232 213 __________P___ -1 16.1900 110.790 2 4 270
1915314N13125 1915 49 WP MM NOT_NAMED 1915-11-14 18:00:00 NR 16.1923 110.584 main 213 195 __________P___ -1 16.1923 110.584 2 4 271
1915314N13125 1915 49 WP MM NOT_NAMED 1915-11-14 21:00:00 NR 16.1979 110.372 main 195 187 __________P___ -1 16.1979 110.372 2 4 272
1915314N13125 1915 49 WP MM NOT_NAMED 1915-11-14 22:00:00 NR 16.2000 110.300 main 187 __________O___ -1 16.2000 110.300 7 4 272

Digital Typhoon Data and Search

About IBTrACS Database

This database is a web-friendly format of International Best Track Archive for Climate Stewardship (IBTrACS), a global best track data archive curated by NOAA dating back to 1842.

Updated: 2021-10-08